sensor_id;sensor_type;location;lat;lon;timestamp;temperature;humidity
27314;DHT22;14800;48.174;9.798;2024-02-28T00:00:45;10.10;79.30
27314;DHT22;14800;48.174;9.798;2024-02-28T00:03:11;10.10;79.30
27314;DHT22;14800;48.174;9.798;2024-02-28T00:05:36;10.10;79.30
27314;DHT22;14800;48.174;9.798;2024-02-28T00:08:02;10.10;80.10
27314;DHT22;14800;48.174;9.798;2024-02-28T00:10:28;10.10;79.30
27314;DHT22;14800;48.174;9.798;2024-02-28T00:12:53;10.10;79.30
27314;DHT22;14800;48.174;9.798;2024-02-28T00:15:19;10.10;79.30
27314;DHT22;14800;48.174;9.798;2024-02-28T00:17:44;10.00;79.30
27314;DHT22;14800;48.174;9.798;2024-02-28T00:20:10;10.00;79.30
27314;DHT22;14800;48.174;9.798;2024-02-28T00:22:37;10.00;79.10
27314;DHT22;14800;48.174;9.798;2024-02-28T00:25:03;10.00;79.30
27314;DHT22;14800;48.174;9.798;2024-02-28T00:27:30;10.00;79.40
27314;DHT22;14800;48.174;9.798;2024-02-28T00:29:56;10.00;79.40
27314;DHT22;14800;48.174;9.798;2024-02-28T00:32:21;9.90;79.30
27314;DHT22;14800;48.174;9.798;2024-02-28T00:34:47;10.00;79.40
27314;DHT22;14800;48.174;9.798;2024-02-28T00:37:12;10.00;79.40
27314;DHT22;14800;48.174;9.798;2024-02-28T00:39:38;10.00;79.40
27314;DHT22;14800;48.174;9.798;2024-02-28T00:42:03;10.00;80.30
27314;DHT22;14800;48.174;9.798;2024-02-28T00:44:29;10.00;79.60
27314;DHT22;14800;48.174;9.798;2024-02-28T00:46:54;10.00;79.40
27314;DHT22;14800;48.174;9.798;2024-02-28T00:49:20;10.00;80.20
27314;DHT22;14800;48.174;9.798;2024-02-28T00:51:46;10.00;79.40
27314;DHT22;14800;48.174;9.798;2024-02-28T00:54:12;10.00;79.50
27314;DHT22;14800;48.174;9.798;2024-02-28T00:56:37;10.00;79.50
27314;DHT22;14800;48.174;9.798;2024-02-28T00:59:03;10.00;80.30
27314;DHT22;14800;48.174;9.798;2024-02-28T01:01:29;9.90;79.40
27314;DHT22;14800;48.174;9.798;2024-02-28T01:03:54;9.90;79.40
27314;DHT22;14800;48.174;9.798;2024-02-28T01:06:20;9.90;79.40
27314;DHT22;14800;48.174;9.798;2024-02-28T01:08:45;9.90;79.50
27314;DHT22;14800;48.174;9.798;2024-02-28T01:11:11;9.80;79.50
27314;DHT22;14800;48.174;9.798;2024-02-28T01:13:36;9.80;79.60
27314;DHT22;14800;48.174;9.798;2024-02-28T01:16:02;9.80;79.60
27314;DHT22;14800;48.174;9.798;2024-02-28T01:18:28;9.80;79.60
27314;DHT22;14800;48.174;9.798;2024-02-28T01:20:56;9.80;79.70
27314;DHT22;14800;48.174;9.798;2024-02-28T01:23:21;9.80;79.80
27314;DHT22;14800;48.174;9.798;2024-02-28T01:25:47;9.80;80.00
27314;DHT22;14800;48.174;9.798;2024-02-28T01:28:13;9.80;79.90
27314;DHT22;14800;48.174;9.798;2024-02-28T01:30:38;9.80;80.00
27314;DHT22;14800;48.174;9.798;2024-02-28T01:33:04;9.80;80.00
27314;DHT22;14800;48.174;9.798;2024-02-28T01:35:30;9.80;80.10
27314;DHT22;14800;48.174;9.798;2024-02-28T01:37:55;9.70;80.00
27314;DHT22;14800;48.174;9.798;2024-02-28T01:40:21;9.80;80.00
27314;DHT22;14800;48.174;9.798;2024-02-28T01:42:46;9.80;80.00
27314;DHT22;14800;48.174;9.798;2024-02-28T01:45:14;9.80;80.00
27314;DHT22;14800;48.174;9.798;2024-02-28T01:47:43;9.80;80.10
27314;DHT22;14800;48.174;9.798;2024-02-28T01:50:12;9.80;80.10
27314;DHT22;14800;48.174;9.798;2024-02-28T01:52:39;9.70;80.20
27314;DHT22;14800;48.174;9.798;2024-02-28T01:55:05;9.80;80.10
27314;DHT22;14800;48.174;9.798;2024-02-28T01:57:32;9.70;80.00
27314;DHT22;14800;48.174;9.798;2024-02-28T01:59:58;9.80;80.00
27314;DHT22;14800;48.174;9.798;2024-02-28T02:02:24;9.80;80.10
27314;DHT22;14800;48.174;9.798;2024-02-28T02:04:50;9.80;80.10
27314;DHT22;14800;48.174;9.798;2024-02-28T02:07:18;9.80;80.10
27314;DHT22;14800;48.174;9.798;2024-02-28T02:09:44;9.80;80.30
27314;DHT22;14800;48.174;9.798;2024-02-28T02:12:10;9.70;80.20
27314;DHT22;14800;48.174;9.798;2024-02-28T02:14:35;9.80;80.20
27314;DHT22;14800;48.174;9.798;2024-02-28T02:17:01;9.80;80.10
27314;DHT22;14800;48.174;9.798;2024-02-28T02:19:27;9.80;80.30
27314;DHT22;14800;48.174;9.798;2024-02-28T02:21:54;9.80;80.20
27314;DHT22;14800;48.174;9.798;2024-02-28T02:24:22;9.70;80.10
27314;DHT22;14800;48.174;9.798;2024-02-28T02:26:48;9.80;80.10
27314;DHT22;14800;48.174;9.798;2024-02-28T02:29:16;9.70;80.10
27314;DHT22;14800;48.174;9.798;2024-02-28T02:31:42;9.70;80.10
27314;DHT22;14800;48.174;9.798;2024-02-28T02:34:07;9.70;80.10
27314;DHT22;14800;48.174;9.798;2024-02-28T02:36:33;9.70;80.10
27314;DHT22;14800;48.174;9.798;2024-02-28T02:38:59;9.70;80.00
27314;DHT22;14800;48.174;9.798;2024-02-28T02:41:24;9.70;80.00
27314;DHT22;14800;48.174;9.798;2024-02-28T02:43:50;9.70;80.00
27314;DHT22;14800;48.174;9.798;2024-02-28T02:46:16;9.70;80.10
27314;DHT22;14800;48.174;9.798;2024-02-28T02:48:41;9.70;80.10
27314;DHT22;14800;48.174;9.798;2024-02-28T02:51:07;9.60;80.20
27314;DHT22;14800;48.174;9.798;2024-02-28T02:53:32;9.60;80.10
27314;DHT22;14800;48.174;9.798;2024-02-28T02:55:58;9.60;80.10
27314;DHT22;14800;48.174;9.798;2024-02-28T02:58:23;9.60;80.20
27314;DHT22;14800;48.174;9.798;2024-02-28T03:00:49;9.60;80.30
27314;DHT22;14800;48.174;9.798;2024-02-28T03:03:15;9.60;80.30
27314;DHT22;14800;48.174;9.798;2024-02-28T03:05:40;9.70;80.30
27314;DHT22;14800;48.174;9.798;2024-02-28T03:08:06;9.60;80.30
27314;DHT22;14800;48.174;9.798;2024-02-28T03:10:32;9.60;80.40
27314;DHT22;14800;48.174;9.798;2024-02-28T03:12:57;9.60;80.40
27314;DHT22;14800;48.174;9.798;2024-02-28T03:15:23;9.60;80.50
27314;DHT22;14800;48.174;9.798;2024-02-28T03:17:48;9.60;80.50
27314;DHT22;14800;48.174;9.798;2024-02-28T03:20:14;9.60;80.50
27314;DHT22;14800;48.174;9.798;2024-02-28T03:22:40;9.60;80.50
27314;DHT22;14800;48.174;9.798;2024-02-28T03:25:06;9.50;80.30
27314;DHT22;14800;48.174;9.798;2024-02-28T03:27:32;9.50;80.40
27314;DHT22;14800;48.174;9.798;2024-02-28T03:29:57;9.60;80.40
27314;DHT22;14800;48.174;9.798;2024-02-28T03:32:23;9.50;80.30
27314;DHT22;14800;48.174;9.798;2024-02-28T03:34:48;9.50;80.40
27314;DHT22;14800;48.174;9.798;2024-02-28T03:37:14;9.50;80.50
27314;DHT22;14800;48.174;9.798;2024-02-28T03:39:40;9.40;80.40
27314;DHT22;14800;48.174;9.798;2024-02-28T03:42:06;9.40;80.50
27314;DHT22;14800;48.174;9.798;2024-02-28T03:44:31;9.40;80.60
27314;DHT22;14800;48.174;9.798;2024-02-28T03:46:57;9.40;80.60
27314;DHT22;14800;48.174;9.798;2024-02-28T03:49:22;9.40;80.80
27314;DHT22;14800;48.174;9.798;2024-02-28T03:51:48;9.40;80.80
27314;DHT22;14800;48.174;9.798;2024-02-28T03:54:13;9.30;80.80
27314;DHT22;14800;48.174;9.798;2024-02-28T03:56:39;9.30;80.80
27314;DHT22;14800;48.174;9.798;2024-02-28T03:59:05;9.30;80.80
27314;DHT22;14800;48.174;9.798;2024-02-28T04:01:30;9.30;80.80
27314;DHT22;14800;48.174;9.798;2024-02-28T04:03:56;9.30;80.90
27314;DHT22;14800;48.174;9.798;2024-02-28T04:06:22;9.40;81.00
27314;DHT22;14800;48.174;9.798;2024-02-28T04:08:47;9.30;81.00
27314;DHT22;14800;48.174;9.798;2024-02-28T04:11:13;9.30;81.10
27314;DHT22;14800;48.174;9.798;2024-02-28T04:13:39;9.30;81.10
27314;DHT22;14800;48.174;9.798;2024-02-28T04:16:05;9.30;81.20
27314;DHT22;14800;48.174;9.798;2024-02-28T04:18:30;9.30;81.10
27314;DHT22;14800;48.174;9.798;2024-02-28T04:20:56;9.30;81.10
27314;DHT22;14800;48.174;9.798;2024-02-28T04:23:22;9.30;81.20
27314;DHT22;14800;48.174;9.798;2024-02-28T04:25:47;9.30;81.20
27314;DHT22;14800;48.174;9.798;2024-02-28T04:28:13;9.30;81.30
27314;DHT22;14800;48.174;9.798;2024-02-28T04:30:39;9.20;81.30
27314;DHT22;14800;48.174;9.798;2024-02-28T04:33:04;9.20;81.20
27314;DHT22;14800;48.174;9.798;2024-02-28T04:35:30;9.20;81.30
27314;DHT22;14800;48.174;9.798;2024-02-28T04:37:55;9.20;81.30
27314;DHT22;14800;48.174;9.798;2024-02-28T04:40:21;9.20;81.30
27314;DHT22;14800;48.174;9.798;2024-02-28T04:42:47;9.20;81.30
27314;DHT22;14800;48.174;9.798;2024-02-28T04:45:15;9.20;81.30
27314;DHT22;14800;48.174;9.798;2024-02-28T04:47:41;9.20;81.30
27314;DHT22;14800;48.174;9.798;2024-02-28T04:50:10;9.20;81.30
27314;DHT22;14800;48.174;9.798;2024-02-28T04:52:36;9.20;81.30
27314;DHT22;14800;48.174;9.798;2024-02-28T04:55:21;9.20;81.30
27314;DHT22;14800;48.174;9.798;2024-02-28T04:57:46;9.20;81.30
27314;DHT22;14800;48.174;9.798;2024-02-28T05:00:12;9.10;81.40
27314;DHT22;14800;48.174;9.798;2024-02-28T05:02:38;9.10;81.50
27314;DHT22;14800;48.174;9.798;2024-02-28T05:05:04;9.10;81.50
27314;DHT22;14800;48.174;9.798;2024-02-28T05:07:29;9.20;81.60
27314;DHT22;14800;48.174;9.798;2024-02-28T05:09:55;9.10;81.60
27314;DHT22;14800;48.174;9.798;2024-02-28T05:12:21;9.10;81.50
27314;DHT22;14800;48.174;9.798;2024-02-28T05:14:46;9.20;81.50
27314;DHT22;14800;48.174;9.798;2024-02-28T05:17:12;9.20;81.50
27314;DHT22;14800;48.174;9.798;2024-02-28T05:19:39;9.20;81.40
27314;DHT22;14800;48.174;9.798;2024-02-28T05:22:04;9.20;81.40
27314;DHT22;14800;48.174;9.798;2024-02-28T05:24:30;9.20;81.40
27314;DHT22;14800;48.174;9.798;2024-02-28T05:26:55;9.20;81.50
27314;DHT22;14800;48.174;9.798;2024-02-28T05:29:21;9.20;81.50
27314;DHT22;14800;48.174;9.798;2024-02-28T05:31:47;9.20;81.50
27314;DHT22;14800;48.174;9.798;2024-02-28T05:34:12;9.20;81.50
27314;DHT22;14800;48.174;9.798;2024-02-28T05:36:40;9.20;81.50
27314;DHT22;14800;48.174;9.798;2024-02-28T05:39:06;9.20;81.50
27314;DHT22;14800;48.174;9.798;2024-02-28T05:41:33;9.20;81.50
27314;DHT22;14800;48.174;9.798;2024-02-28T05:43:59;9.20;81.50
27314;DHT22;14800;48.174;9.798;2024-02-28T05:46:24;9.20;81.50
27314;DHT22;14800;48.174;9.798;2024-02-28T05:48:50;9.10;81.30
27314;DHT22;14800;48.174;9.798;2024-02-28T05:51:16;9.20;81.50
27314;DHT22;14800;48.174;9.798;2024-02-28T05:53:42;9.20;81.40
27314;DHT22;14800;48.174;9.798;2024-02-28T05:56:09;9.10;81.30
27314;DHT22;14800;48.174;9.798;2024-02-28T05:58:41;9.10;81.30
27314;DHT22;14800;48.174;9.798;2024-02-28T06:01:07;9.10;81.20
27314;DHT22;14800;48.174;9.798;2024-02-28T06:03:33;9.10;81.20
27314;DHT22;14800;48.174;9.798;2024-02-28T06:05:59;9.10;81.20
27314;DHT22;14800;48.174;9.798;2024-02-28T06:08:25;9.10;81.10
27314;DHT22;14800;48.174;9.798;2024-02-28T06:10:50;9.10;81.10
27314;DHT22;14800;48.174;9.798;2024-02-28T06:13:18;9.10;81.10
27314;DHT22;14800;48.174;9.798;2024-02-28T06:15:43;9.10;81.10
27314;DHT22;14800;48.174;9.798;2024-02-28T06:18:09;9.10;81.00
27314;DHT22;14800;48.174;9.798;2024-02-28T06:20:34;9.10;81.00
27314;DHT22;14800;48.174;9.798;2024-02-28T06:23:00;9.10;81.20
27314;DHT22;14800;48.174;9.798;2024-02-28T06:25:26;9.10;81.10
27314;DHT22;14800;48.174;9.798;2024-02-28T06:27:53;9.10;81.20
27314;DHT22;14800;48.174;9.798;2024-02-28T06:30:19;9.00;81.10
27314;DHT22;14800;48.174;9.798;2024-02-28T06:32:44;9.10;81.00
27314;DHT22;14800;48.174;9.798;2024-02-28T06:35:10;9.00;80.80
27314;DHT22;14800;48.174;9.798;2024-02-28T06:37:36;9.00;80.80
27314;DHT22;14800;48.174;9.798;2024-02-28T06:40:03;9.00;81.00
27314;DHT22;14800;48.174;9.798;2024-02-28T06:42:34;9.00;81.20
27314;DHT22;14800;48.174;9.798;2024-02-28T06:45:02;9.00;81.20
27314;DHT22;14800;48.174;9.798;2024-02-28T06:47:28;8.90;81.20
27314;DHT22;14800;48.174;9.798;2024-02-28T06:49:53;9.00;81.30
27314;DHT22;14800;48.174;9.798;2024-02-28T06:52:19;9.00;81.40
27314;DHT22;14800;48.174;9.798;2024-02-28T06:54:44;9.00;81.50
27314;DHT22;14800;48.174;9.798;2024-02-28T06:57:10;9.00;81.50
27314;DHT22;14800;48.174;9.798;2024-02-28T06:59:37;9.00;81.50
27314;DHT22;14800;48.174;9.798;2024-02-28T07:02:02;9.00;81.50
27314;DHT22;14800;48.174;9.798;2024-02-28T07:04:28;9.00;81.50
27314;DHT22;14800;48.174;9.798;2024-02-28T07:06:53;9.00;81.50
27314;DHT22;14800;48.174;9.798;2024-02-28T07:09:19;9.00;81.50
27314;DHT22;14800;48.174;9.798;2024-02-28T07:11:44;9.00;81.50
27314;DHT22;14800;48.174;9.798;2024-02-28T07:14:10;9.00;81.50
27314;DHT22;14800;48.174;9.798;2024-02-28T07:16:35;9.00;81.50
27314;DHT22;14800;48.174;9.798;2024-02-28T07:19:01;9.00;81.50
27314;DHT22;14800;48.174;9.798;2024-02-28T07:21:27;9.00;81.50
27314;DHT22;14800;48.174;9.798;2024-02-28T07:23:53;9.00;81.60
27314;DHT22;14800;48.174;9.798;2024-02-28T07:26:19;9.00;81.60
27314;DHT22;14800;48.174;9.798;2024-02-28T07:28:45;9.00;81.60
27314;DHT22;14800;48.174;9.798;2024-02-28T07:31:18;8.90;81.70
27314;DHT22;14800;48.174;9.798;2024-02-28T07:33:44;9.00;81.70
27314;DHT22;14800;48.174;9.798;2024-02-28T07:36:10;8.90;81.70
27314;DHT22;14800;48.174;9.798;2024-02-28T07:38:36;8.90;81.60
27314;DHT22;14800;48.174;9.798;2024-02-28T07:41:02;9.00;81.60
27314;DHT22;14800;48.174;9.798;2024-02-28T07:43:28;9.00;81.60
27314;DHT22;14800;48.174;9.798;2024-02-28T07:45:54;8.90;81.70
27314;DHT22;14800;48.174;9.798;2024-02-28T07:48:19;8.90;81.70
27314;DHT22;14800;48.174;9.798;2024-02-28T07:50:45;9.00;81.50
27314;DHT22;14800;48.174;9.798;2024-02-28T07:53:12;8.90;81.40
27314;DHT22;14800;48.174;9.798;2024-02-28T07:55:37;8.90;81.30
27314;DHT22;14800;48.174;9.798;2024-02-28T07:58:04;8.90;81.30
27314;DHT22;14800;48.174;9.798;2024-02-28T08:00:31;9.00;81.30
27314;DHT22;14800;48.174;9.798;2024-02-28T08:02:58;9.00;81.30
27314;DHT22;14800;48.174;9.798;2024-02-28T08:05:24;9.00;81.90
27314;DHT22;14800;48.174;9.798;2024-02-28T08:07:49;8.90;81.00
27314;DHT22;14800;48.174;9.798;2024-02-28T08:10:15;8.90;80.80
27314;DHT22;14800;48.174;9.798;2024-02-28T08:12:41;8.90;80.90
27314;DHT22;14800;48.174;9.798;2024-02-28T08:15:06;8.90;81.00
27314;DHT22;14800;48.174;9.798;2024-02-28T08:17:32;8.90;81.00
27314;DHT22;14800;48.174;9.798;2024-02-28T08:19:57;8.90;80.90
27314;DHT22;14800;48.174;9.798;2024-02-28T08:22:23;8.90;81.00
27314;DHT22;14800;48.174;9.798;2024-02-28T08:24:53;8.90;81.00
27314;DHT22;14800;48.174;9.798;2024-02-28T08:27:19;8.90;81.10
27314;DHT22;14800;48.174;9.798;2024-02-28T08:29:46;8.90;81.00
27314;DHT22;14800;48.174;9.798;2024-02-28T08:32:12;9.00;81.00
27314;DHT22;14800;48.174;9.798;2024-02-28T08:34:38;8.90;80.80
27314;DHT22;14800;48.174;9.798;2024-02-28T08:37:04;8.90;80.80
27314;DHT22;14800;48.174;9.798;2024-02-28T08:39:30;8.90;80.80
27314;DHT22;14800;48.174;9.798;2024-02-28T08:41:55;9.00;80.90
27314;DHT22;14800;48.174;9.798;2024-02-28T08:44:21;8.90;81.50
27314;DHT22;14800;48.174;9.798;2024-02-28T08:46:47;9.00;80.70
27314;DHT22;14800;48.174;9.798;2024-02-28T08:49:14;9.00;80.70
27314;DHT22;14800;48.174;9.798;2024-02-28T08:51:39;9.00;80.60
27314;DHT22;14800;48.174;9.798;2024-02-28T08:54:05;9.00;80.30
27314;DHT22;14800;48.174;9.798;2024-02-28T08:56:31;8.90;80.30
27314;DHT22;14800;48.174;9.798;2024-02-28T08:58:57;8.90;80.50
27314;DHT22;14800;48.174;9.798;2024-02-28T09:01:22;8.90;80.60
27314;DHT22;14800;48.174;9.798;2024-02-28T09:03:48;8.90;81.60
27314;DHT22;14800;48.174;9.798;2024-02-28T09:06:14;8.90;80.80
27314;DHT22;14800;48.174;9.798;2024-02-28T09:08:39;8.90;80.80
27314;DHT22;14800;48.174;9.798;2024-02-28T09:11:05;8.90;80.60
27314;DHT22;14800;48.174;9.798;2024-02-28T09:13:31;8.90;80.50
27314;DHT22;14800;48.174;9.798;2024-02-28T09:15:57;8.90;80.60
27314;DHT22;14800;48.174;9.798;2024-02-28T09:18:23;8.90;80.70
27314;DHT22;14800;48.174;9.798;2024-02-28T09:20:48;8.90;80.80
27314;DHT22;14800;48.174;9.798;2024-02-28T09:23:14;8.90;80.60
27314;DHT22;14800;48.174;9.798;2024-02-28T09:25:40;8.80;80.50
27314;DHT22;14800;48.174;9.798;2024-02-28T09:28:05;8.80;80.50
27314;DHT22;14800;48.174;9.798;2024-02-28T09:30:31;8.80;80.60
27314;DHT22;14800;48.174;9.798;2024-02-28T09:32:57;8.80;81.00
27314;DHT22;14800;48.174;9.798;2024-02-28T09:35:22;8.80;81.10
27314;DHT22;14800;48.174;9.798;2024-02-28T09:37:48;8.90;81.20
27314;DHT22;14800;48.174;9.798;2024-02-28T09:40:13;8.90;81.20
27314;DHT22;14800;48.174;9.798;2024-02-28T09:42:39;8.90;81.20
27314;DHT22;14800;48.174;9.798;2024-02-28T09:45:08;9.00;81.00
27314;DHT22;14800;48.174;9.798;2024-02-28T09:47:35;9.00;81.00
27314;DHT22;14800;48.174;9.798;2024-02-28T09:50:01;9.00;81.00
27314;DHT22;14800;48.174;9.798;2024-02-28T09:52:28;9.10;81.10
27314;DHT22;14800;48.174;9.798;2024-02-28T09:54:53;9.20;80.80
27314;DHT22;14800;48.174;9.798;2024-02-28T09:57:19;9.20;80.40
27314;DHT22;14800;48.174;9.798;2024-02-28T09:59:46;9.20;79.80
27314;DHT22;14800;48.174;9.798;2024-02-28T10:02:15;9.20;80.00
27314;DHT22;14800;48.174;9.798;2024-02-28T10:04:42;9.20;80.00
27314;DHT22;14800;48.174;9.798;2024-02-28T10:07:11;9.20;79.90
27314;DHT22;14800;48.174;9.798;2024-02-28T10:09:38;9.30;79.80
27314;DHT22;14800;48.174;9.798;2024-02-28T10:12:04;9.30;79.50
27314;DHT22;14800;48.174;9.798;2024-02-28T10:14:30;9.30;79.20
27314;DHT22;14800;48.174;9.798;2024-02-28T10:16:56;9.30;79.10
27314;DHT22;14800;48.174;9.798;2024-02-28T10:19:21;9.40;79.00
27314;DHT22;14800;48.174;9.798;2024-02-28T10:21:47;9.40;78.90
27314;DHT22;14800;48.174;9.798;2024-02-28T10:24:14;9.40;78.60
27314;DHT22;14800;48.174;9.798;2024-02-28T10:26:46;9.50;78.40
27314;DHT22;14800;48.174;9.798;2024-02-28T10:29:24;9.50;78.20
27314;DHT22;14800;48.174;9.798;2024-02-28T10:31:51;9.50;78.60
27314;DHT22;14800;48.174;9.798;2024-02-28T10:34:17;9.50;78.70
27314;DHT22;14800;48.174;9.798;2024-02-28T10:36:44;9.50;78.60
27314;DHT22;14800;48.174;9.798;2024-02-28T10:39:11;9.50;78.70
27314;DHT22;14800;48.174;9.798;2024-02-28T10:41:41;9.60;78.40
27314;DHT22;14800;48.174;9.798;2024-02-28T10:44:11;9.60;77.90
27314;DHT22;14800;48.174;9.798;2024-02-28T10:46:38;9.60;77.90
27314;DHT22;14800;48.174;9.798;2024-02-28T10:49:05;9.60;78.00
27314;DHT22;14800;48.174;9.798;2024-02-28T10:51:34;9.70;78.20
27314;DHT22;14800;48.174;9.798;2024-02-28T10:54:09;9.70;78.00
27314;DHT22;14800;48.174;9.798;2024-02-28T10:56:39;9.70;77.90
27314;DHT22;14800;48.174;9.798;2024-02-28T10:59:07;9.80;78.20
27314;DHT22;14800;48.174;9.798;2024-02-28T11:01:35;9.80;78.10
27314;DHT22;14800;48.174;9.798;2024-02-28T11:04:03;9.90;78.00
27314;DHT22;14800;48.174;9.798;2024-02-28T11:06:28;10.00;78.00
27314;DHT22;14800;48.174;9.798;2024-02-28T11:08:55;10.10;78.00
27314;DHT22;14800;48.174;9.798;2024-02-28T11:11:22;10.10;77.00
27314;DHT22;14800;48.174;9.798;2024-02-28T11:13:58;10.20;77.50
27314;DHT22;14800;48.174;9.798;2024-02-28T11:16:26;10.20;77.10
27314;DHT22;14800;48.174;9.798;2024-02-28T11:18:53;10.30;77.30
27314;DHT22;14800;48.174;9.798;2024-02-28T11:21:19;10.30;77.20
27314;DHT22;14800;48.174;9.798;2024-02-28T11:23:48;10.40;77.00
27314;DHT22;14800;48.174;9.798;2024-02-28T11:26:14;10.40;76.80
27314;DHT22;14800;48.174;9.798;2024-02-28T11:28:39;10.50;76.80
27314;DHT22;14800;48.174;9.798;2024-02-28T11:31:05;10.60;76.80
27314;DHT22;14800;48.174;9.798;2024-02-28T11:33:31;10.60;76.50
27314;DHT22;14800;48.174;9.798;2024-02-28T11:35:58;10.70;76.30
27314;DHT22;14800;48.174;9.798;2024-02-28T11:38:27;10.70;76.20
27314;DHT22;14800;48.174;9.798;2024-02-28T11:40:53;10.70;76.10
27314;DHT22;14800;48.174;9.798;2024-02-28T11:43:19;10.70;76.00
27314;DHT22;14800;48.174;9.798;2024-02-28T11:45:45;10.70;75.90
27314;DHT22;14800;48.174;9.798;2024-02-28T11:48:15;10.80;76.00
27314;DHT22;14800;48.174;9.798;2024-02-28T11:50:42;10.80;76.00
27314;DHT22;14800;48.174;9.798;2024-02-28T11:53:08;10.90;75.90
27314;DHT22;14800;48.174;9.798;2024-02-28T11:55:34;10.90;75.70
27314;DHT22;14800;48.174;9.798;2024-02-28T11:57:59;11.00;75.70
27314;DHT22;14800;48.174;9.798;2024-02-28T12:00:26;11.00;75.80
27314;DHT22;14800;48.174;9.798;2024-02-28T12:02:52;11.00;75.60
27314;DHT22;14800;48.174;9.798;2024-02-28T12:05:19;11.10;76.30
27314;DHT22;14800;48.174;9.798;2024-02-28T12:07:45;11.10;75.30
27314;DHT22;14800;48.174;9.798;2024-02-28T12:10:11;11.20;75.40
27314;DHT22;14800;48.174;9.798;2024-02-28T12:12:38;11.20;75.50
27314;DHT22;14800;48.174;9.798;2024-02-28T12:15:05;11.20;75.50
27314;DHT22;14800;48.174;9.798;2024-02-28T12:17:31;11.30;75.60
27314;DHT22;14800;48.174;9.798;2024-02-28T12:19:59;11.40;75.20
27314;DHT22;14800;48.174;9.798;2024-02-28T12:22:25;11.40;75.00
27314;DHT22;14800;48.174;9.798;2024-02-28T12:24:51;11.50;74.80
27314;DHT22;14800;48.174;9.798;2024-02-28T12:27:16;11.50;74.70
27314;DHT22;14800;48.174;9.798;2024-02-28T12:29:42;11.50;74.70
27314;DHT22;14800;48.174;9.798;2024-02-28T12:32:09;11.50;74.70
27314;DHT22;14800;48.174;9.798;2024-02-28T12:34:35;11.50;74.70
27314;DHT22;14800;48.174;9.798;2024-02-28T12:37:01;11.60;74.60
27314;DHT22;14800;48.174;9.798;2024-02-28T12:39:26;11.60;74.40
27314;DHT22;14800;48.174;9.798;2024-02-28T12:41:52;11.60;74.30
27314;DHT22;14800;48.174;9.798;2024-02-28T12:44:18;11.60;74.20
27314;DHT22;14800;48.174;9.798;2024-02-28T12:46:43;11.60;74.00
27314;DHT22;14800;48.174;9.798;2024-02-28T12:49:09;11.60;74.00
27314;DHT22;14800;48.174;9.798;2024-02-28T12:51:44;11.60;74.10
27314;DHT22;14800;48.174;9.798;2024-02-28T12:54:14;11.70;74.00
27314;DHT22;14800;48.174;9.798;2024-02-28T12:56:40;11.60;74.00
27314;DHT22;14800;48.174;9.798;2024-02-28T12:59:09;11.70;73.90
27314;DHT22;14800;48.174;9.798;2024-02-28T13:01:35;11.70;73.60
27314;DHT22;14800;48.174;9.798;2024-02-28T13:04:00;11.70;73.50
27314;DHT22;14800;48.174;9.798;2024-02-28T13:06:26;11.70;73.30
27314;DHT22;14800;48.174;9.798;2024-02-28T13:08:53;11.70;73.20
27314;DHT22;14800;48.174;9.798;2024-02-28T13:11:20;11.70;73.10
27314;DHT22;14800;48.174;9.798;2024-02-28T13:13:49;11.70;72.60
27314;DHT22;14800;48.174;9.798;2024-02-28T13:16:16;11.70;72.60
27314;DHT22;14800;48.174;9.798;2024-02-28T13:18:42;11.70;72.50
27314;DHT22;14800;48.174;9.798;2024-02-28T13:21:08;11.70;72.50
27314;DHT22;14800;48.174;9.798;2024-02-28T13:23:33;11.70;72.50
27314;DHT22;14800;48.174;9.798;2024-02-28T13:26:00;11.80;72.50
27314;DHT22;14800;48.174;9.798;2024-02-28T13:28:27;11.80;72.50
27314;DHT22;14800;48.174;9.798;2024-02-28T13:30:59;11.80;72.30
27314;DHT22;14800;48.174;9.798;2024-02-28T13:33:26;11.80;71.90
27314;DHT22;14800;48.174;9.798;2024-02-28T13:35:52;11.90;72.10
27314;DHT22;14800;48.174;9.798;2024-02-28T13:38:19;11.90;71.70
27314;DHT22;14800;48.174;9.798;2024-02-28T13:40:45;11.90;71.50
27314;DHT22;14800;48.174;9.798;2024-02-28T13:43:11;11.80;71.40
27314;DHT22;14800;48.174;9.798;2024-02-28T13:45:46;11.80;71.60
27314;DHT22;14800;48.174;9.798;2024-02-28T13:48:16;11.80;71.80
27314;DHT22;14800;48.174;9.798;2024-02-28T13:50:42;11.80;72.00
27314;DHT22;14800;48.174;9.798;2024-02-28T13:53:07;11.80;72.10
27314;DHT22;14800;48.174;9.798;2024-02-28T13:55:33;11.90;72.00
27314;DHT22;14800;48.174;9.798;2024-02-28T13:57:58;11.90;72.00
27314;DHT22;14800;48.174;9.798;2024-02-28T14:00:24;11.90;71.80
27314;DHT22;14800;48.174;9.798;2024-02-28T14:02:49;12.00;71.60
27314;DHT22;14800;48.174;9.798;2024-02-28T14:05:15;12.00;71.30
27314;DHT22;14800;48.174;9.798;2024-02-28T14:07:41;12.00;71.10
27314;DHT22;14800;48.174;9.798;2024-02-28T14:10:07;12.00;70.90
27314;DHT22;14800;48.174;9.798;2024-02-28T14:12:32;12.00;70.80
27314;DHT22;14800;48.174;9.798;2024-02-28T14:14:58;12.00;71.60
27314;DHT22;14800;48.174;9.798;2024-02-28T14:17:23;12.00;70.60
27314;DHT22;14800;48.174;9.798;2024-02-28T14:19:49;12.00;70.50
27314;DHT22;14800;48.174;9.798;2024-02-28T14:22:15;12.00;70.60
27314;DHT22;14800;48.174;9.798;2024-02-28T14:24:40;11.90;71.00
27314;DHT22;14800;48.174;9.798;2024-02-28T14:27:06;11.90;71.30
27314;DHT22;14800;48.174;9.798;2024-02-28T14:29:32;11.80;71.70
27314;DHT22;14800;48.174;9.798;2024-02-28T14:31:57;11.80;72.00
27314;DHT22;14800;48.174;9.798;2024-02-28T14:34:23;11.70;72.10
27314;DHT22;14800;48.174;9.798;2024-02-28T14:36:49;11.70;72.30
27314;DHT22;14800;48.174;9.798;2024-02-28T14:39:15;11.70;72.30
27314;DHT22;14800;48.174;9.798;2024-02-28T14:41:43;11.70;72.40
27314;DHT22;14800;48.174;9.798;2024-02-28T14:44:12;11.70;72.30
27314;DHT22;14800;48.174;9.798;2024-02-28T14:46:39;11.70;72.50
27314;DHT22;14800;48.174;9.798;2024-02-28T14:49:04;11.70;72.60
27314;DHT22;14800;48.174;9.798;2024-02-28T14:51:30;11.60;72.50
27314;DHT22;14800;48.174;9.798;2024-02-28T14:53:56;11.60;72.60
27314;DHT22;14800;48.174;9.798;2024-02-28T14:56:22;11.60;72.60
27314;DHT22;14800;48.174;9.798;2024-02-28T14:58:47;11.60;72.60
27314;DHT22;14800;48.174;9.798;2024-02-28T15:01:13;11.60;72.80
27314;DHT22;14800;48.174;9.798;2024-02-28T15:03:39;11.60;72.90
27314;DHT22;14800;48.174;9.798;2024-02-28T15:06:06;11.50;72.90
27314;DHT22;14800;48.174;9.798;2024-02-28T15:08:31;11.50;72.80
27314;DHT22;14800;48.174;9.798;2024-02-28T15:10:57;11.50;72.90
27314;DHT22;14800;48.174;9.798;2024-02-28T15:13:22;11.50;72.80
27314;DHT22;14800;48.174;9.798;2024-02-28T15:15:49;11.50;72.80
27314;DHT22;14800;48.174;9.798;2024-02-28T15:18:15;11.50;72.80
27314;DHT22;14800;48.174;9.798;2024-02-28T15:20:40;11.40;72.50
27314;DHT22;14800;48.174;9.798;2024-02-28T15:23:06;11.50;72.50
27314;DHT22;14800;48.174;9.798;2024-02-28T15:25:32;11.40;72.50
27314;DHT22;14800;48.174;9.798;2024-02-28T15:27:57;11.40;72.50
27314;DHT22;14800;48.174;9.798;2024-02-28T15:30:23;11.50;72.60
27314;DHT22;14800;48.174;9.798;2024-02-28T15:32:49;11.40;72.70